sensor_id;sensor_type;location;lat;lon;timestamp;temperature;humidity
11908;DHT22;6014;47.690;9.130;2023-05-07T00:01:55;12.90;99.90
11908;DHT22;6014;47.690;9.130;2023-05-07T00:04:23;12.80;99.90
11908;DHT22;6014;47.690;9.130;2023-05-07T00:06:52;12.70;99.90
11908;DHT22;6014;47.690;9.130;2023-05-07T00:09:20;12.70;99.90
11908;DHT22;6014;47.690;9.130;2023-05-07T00:11:49;12.70;99.90
11908;DHT22;6014;47.690;9.130;2023-05-07T00:14:17;12.70;99.90
11908;DHT22;6014;47.690;9.130;2023-05-07T00:16:45;12.60;99.90
11908;DHT22;6014;47.690;9.130;2023-05-07T00:19:21;12.50;99.90
11908;DHT22;6014;47.690;9.130;2023-05-07T00:21:49;12.50;99.90
11908;DHT22;6014;47.690;9.130;2023-05-07T00:24:17;12.50;99.90
11908;DHT22;6014;47.690;9.130;2023-05-07T00:26:50;12.50;99.90
11908;DHT22;6014;47.690;9.130;2023-05-07T00:29:19;12.40;99.90
11908;DHT22;6014;47.690;9.130;2023-05-07T00:31:51;12.50;99.90
11908;DHT22;6014;47.690;9.130;2023-05-07T00:34:37;12.50;99.90
11908;DHT22;6014;47.690;9.130;2023-05-07T00:37:06;12.50;99.90
11908;DHT22;6014;47.690;9.130;2023-05-07T00:39:35;12.50;99.90
11908;DHT22;6014;47.690;9.130;2023-05-07T00:42:14;12.50;99.90
11908;DHT22;6014;47.690;9.130;2023-05-07T00:44:42;12.50;99.90
11908;DHT22;6014;47.690;9.130;2023-05-07T00:47:11;12.60;99.90
11908;DHT22;6014;47.690;9.130;2023-05-07T00:49:41;12.50;99.90
11908;DHT22;6014;47.690;9.130;2023-05-07T00:52:14;12.50;99.90
11908;DHT22;6014;47.690;9.130;2023-05-07T00:54:42;12.50;99.90
11908;DHT22;6014;47.690;9.130;2023-05-07T00:57:10;12.50;99.90
11908;DHT22;6014;47.690;9.130;2023-05-07T00:59:40;12.50;99.90
11908;DHT22;6014;47.690;9.130;2023-05-07T01:02:09;12.50;99.90
11908;DHT22;6014;47.690;9.130;2023-05-07T01:04:56;12.40;99.90
11908;DHT22;6014;47.690;9.130;2023-05-07T01:07:25;12.50;99.90
11908;DHT22;6014;47.690;9.130;2023-05-07T01:09:54;12.40;99.90
11908;DHT22;6014;47.690;9.130;2023-05-07T01:12:25;12.40;99.90
11908;DHT22;6014;47.690;9.130;2023-05-07T01:14:55;12.40;99.90
11908;DHT22;6014;47.690;9.130;2023-05-07T01:17:24;12.40;99.90
11908;DHT22;6014;47.690;9.130;2023-05-07T01:19:54;12.40;99.90
11908;DHT22;6014;47.690;9.130;2023-05-07T01:22:35;12.40;99.90
11908;DHT22;6014;47.690;9.130;2023-05-07T01:25:04;12.30;99.90
11908;DHT22;6014;47.690;9.130;2023-05-07T01:27:34;12.30;99.90
11908;DHT22;6014;47.690;9.130;2023-05-07T01:30:04;12.30;99.90
11908;DHT22;6014;47.690;9.130;2023-05-07T01:32:35;12.30;99.90
11908;DHT22;6014;47.690;9.130;2023-05-07T01:35:07;12.30;99.90
11908;DHT22;6014;47.690;9.130;2023-05-07T01:37:39;12.20;99.90
11908;DHT22;6014;47.690;9.130;2023-05-07T01:40:09;12.20;99.90
11908;DHT22;6014;47.690;9.130;2023-05-07T01:42:38;12.10;99.90
11908;DHT22;6014;47.690;9.130;2023-05-07T01:45:07;12.10;99.90
11908;DHT22;6014;47.690;9.130;2023-05-07T01:47:36;12.10;99.90
11908;DHT22;6014;47.690;9.130;2023-05-07T01:50:06;12.00;99.90
11908;DHT22;6014;47.690;9.130;2023-05-07T01:52:38;12.00;99.90
11908;DHT22;6014;47.690;9.130;2023-05-07T01:55:07;12.10;99.90
11908;DHT22;6014;47.690;9.130;2023-05-07T01:57:35;12.00;99.90
11908;DHT22;6014;47.690;9.130;2023-05-07T02:00:05;11.90;99.90
11908;DHT22;6014;47.690;9.130;2023-05-07T02:02:36;11.90;99.90
11908;DHT22;6014;47.690;9.130;2023-05-07T02:05:05;11.90;99.90
11908;DHT22;6014;47.690;9.130;2023-05-07T02:07:33;11.90;99.90
11908;DHT22;6014;47.690;9.130;2023-05-07T02:10:03;11.90;99.90
11908;DHT22;6014;47.690;9.130;2023-05-07T02:12:31;11.80;99.90
11908;DHT22;6014;47.690;9.130;2023-05-07T02:15:00;11.80;99.90
11908;DHT22;6014;47.690;9.130;2023-05-07T02:17:31;11.90;99.90
11908;DHT22;6014;47.690;9.130;2023-05-07T02:20:00;11.90;99.90
11908;DHT22;6014;47.690;9.130;2023-05-07T02:22:28;11.80;99.90
11908;DHT22;6014;47.690;9.130;2023-05-07T02:24:58;11.80;99.90
11908;DHT22;6014;47.690;9.130;2023-05-07T02:27:28;11.70;99.90
11908;DHT22;6014;47.690;9.130;2023-05-07T02:29:56;11.70;99.90
11908;DHT22;6014;47.690;9.130;2023-05-07T02:32:24;11.70;99.90
11908;DHT22;6014;47.690;9.130;2023-05-07T02:34:52;11.70;99.90
11908;DHT22;6014;47.690;9.130;2023-05-07T02:37:21;11.60;99.90
11908;DHT22;6014;47.690;9.130;2023-05-07T02:39:49;11.50;99.90
11908;DHT22;6014;47.690;9.130;2023-05-07T02:42:17;11.50;99.90
11908;DHT22;6014;47.690;9.130;2023-05-07T02:44:46;11.50;99.90
11908;DHT22;6014;47.690;9.130;2023-05-07T02:47:15;11.40;99.90
11908;DHT22;6014;47.690;9.130;2023-05-07T02:49:43;11.40;99.90
11908;DHT22;6014;47.690;9.130;2023-05-07T02:52:13;11.40;99.90
11908;DHT22;6014;47.690;9.130;2023-05-07T02:54:41;11.30;99.90
11908;DHT22;6014;47.690;9.130;2023-05-07T02:57:09;11.40;99.90
11908;DHT22;6014;47.690;9.130;2023-05-07T02:59:37;11.30;99.90
11908;DHT22;6014;47.690;9.130;2023-05-07T03:02:07;11.30;99.90
11908;DHT22;6014;47.690;9.130;2023-05-07T03:04:35;11.20;99.90
11908;DHT22;6014;47.690;9.130;2023-05-07T03:07:03;11.20;99.90
11908;DHT22;6014;47.690;9.130;2023-05-07T03:09:31;11.10;99.90
11908;DHT22;6014;47.690;9.130;2023-05-07T03:12:01;11.10;99.90
11908;DHT22;6014;47.690;9.130;2023-05-07T03:14:29;11.10;99.90
11908;DHT22;6014;47.690;9.130;2023-05-07T03:16:57;11.10;99.90
11908;DHT22;6014;47.690;9.130;2023-05-07T03:19:28;11.10;99.90
11908;DHT22;6014;47.690;9.130;2023-05-07T03:21:58;11.10;99.90
11908;DHT22;6014;47.690;9.130;2023-05-07T03:24:26;11.00;99.90
11908;DHT22;6014;47.690;9.130;2023-05-07T03:26:54;11.00;99.90
11908;DHT22;6014;47.690;9.130;2023-05-07T03:29:22;11.00;99.90
11908;DHT22;6014;47.690;9.130;2023-05-07T03:31:50;11.00;99.90
11908;DHT22;6014;47.690;9.130;2023-05-07T03:34:18;10.90;99.90
11908;DHT22;6014;47.690;9.130;2023-05-07T03:36:52;10.80;99.90
11908;DHT22;6014;47.690;9.130;2023-05-07T03:39:20;10.90;99.90
11908;DHT22;6014;47.690;9.130;2023-05-07T03:41:48;10.90;99.90
11908;DHT22;6014;47.690;9.130;2023-05-07T03:44:16;10.80;99.90
11908;DHT22;6014;47.690;9.130;2023-05-07T03:46:44;10.80;99.90
11908;DHT22;6014;47.690;9.130;2023-05-07T03:49:12;10.80;99.90
11908;DHT22;6014;47.690;9.130;2023-05-07T03:51:40;10.70;99.90
11908;DHT22;6014;47.690;9.130;2023-05-07T03:54:10;10.70;99.90
11908;DHT22;6014;47.690;9.130;2023-05-07T03:56:39;10.70;99.90
11908;DHT22;6014;47.690;9.130;2023-05-07T03:59:07;10.70;99.90
11908;DHT22;6014;47.690;9.130;2023-05-07T04:01:36;10.60;99.90
11908;DHT22;6014;47.690;9.130;2023-05-07T04:04:08;10.60;99.90
11908;DHT22;6014;47.690;9.130;2023-05-07T04:06:36;10.60;99.90
11908;DHT22;6014;47.690;9.130;2023-05-07T04:09:04;10.60;99.90
11908;DHT22;6014;47.690;9.130;2023-05-07T04:11:33;10.50;99.90
11908;DHT22;6014;47.690;9.130;2023-05-07T04:14:01;10.50;99.90
11908;DHT22;6014;47.690;9.130;2023-05-07T04:16:29;10.50;99.90
11908;DHT22;6014;47.690;9.130;2023-05-07T04:18:57;10.60;99.90
11908;DHT22;6014;47.690;9.130;2023-05-07T04:21:25;10.60;99.90
11908;DHT22;6014;47.690;9.130;2023-05-07T04:23:53;10.60;99.90
11908;DHT22;6014;47.690;9.130;2023-05-07T04:26:21;10.60;99.90
11908;DHT22;6014;47.690;9.130;2023-05-07T04:28:53;10.70;99.90
11908;DHT22;6014;47.690;9.130;2023-05-07T04:31:21;10.70;99.90
11908;DHT22;6014;47.690;9.130;2023-05-07T04:33:49;10.70;99.90
11908;DHT22;6014;47.690;9.130;2023-05-07T04:36:18;10.70;99.90
11908;DHT22;6014;47.690;9.130;2023-05-07T04:38:46;10.70;99.90
11908;DHT22;6014;47.690;9.130;2023-05-07T04:41:14;10.80;99.90
11908;DHT22;6014;47.690;9.130;2023-05-07T04:43:43;10.90;99.90
11908;DHT22;6014;47.690;9.130;2023-05-07T04:46:12;11.00;99.90
11908;DHT22;6014;47.690;9.130;2023-05-07T04:48:40;11.20;99.90
11908;DHT22;6014;47.690;9.130;2023-05-07T04:51:15;11.40;99.90
11908;DHT22;6014;47.690;9.130;2023-05-07T04:53:44;11.70;99.90
11908;DHT22;6014;47.690;9.130;2023-05-07T04:56:14;12.00;99.90
11908;DHT22;6014;47.690;9.130;2023-05-07T04:58:48;12.20;99.90
11908;DHT22;6014;47.690;9.130;2023-05-07T05:01:18;12.40;99.90
11908;DHT22;6014;47.690;9.130;2023-05-07T05:03:46;12.80;99.90
11908;DHT22;6014;47.690;9.130;2023-05-07T05:06:21;12.90;99.90
11908;DHT22;6014;47.690;9.130;2023-05-07T05:08:51;13.20;99.90
11908;DHT22;6014;47.690;9.130;2023-05-07T05:11:20;13.30;99.90
11908;DHT22;6014;47.690;9.130;2023-05-07T05:13:48;13.40;99.90
11908;DHT22;6014;47.690;9.130;2023-05-07T05:16:18;13.70;99.90
11908;DHT22;6014;47.690;9.130;2023-05-07T05:18:46;13.90;99.90
11908;DHT22;6014;47.690;9.130;2023-05-07T05:21:15;14.10;99.90
11908;DHT22;6014;47.690;9.130;2023-05-07T05:23:49;14.30;99.90
11908;DHT22;6014;47.690;9.130;2023-05-07T05:26:18;14.60;99.90
11908;DHT22;6014;47.690;9.130;2023-05-07T05:28:54;14.80;99.90
11908;DHT22;6014;47.690;9.130;2023-05-07T05:31:25;15.00;99.90
11908;DHT22;6014;47.690;9.130;2023-05-07T05:33:53;15.50;99.90
11908;DHT22;6014;47.690;9.130;2023-05-07T05:36:22;15.70;99.90
11908;DHT22;6014;47.690;9.130;2023-05-07T05:38:50;15.90;99.90
11908;DHT22;6014;47.690;9.130;2023-05-07T05:41:18;15.60;99.90
11908;DHT22;6014;47.690;9.130;2023-05-07T05:43:48;16.00;99.90
11908;DHT22;6014;47.690;9.130;2023-05-07T05:46:16;16.30;99.90
11908;DHT22;6014;47.690;9.130;2023-05-07T05:48:46;16.20;99.90
11908;DHT22;6014;47.690;9.130;2023-05-07T05:51:14;16.20;99.90
11908;DHT22;6014;47.690;9.130;2023-05-07T05:53:49;16.40;99.90
11908;DHT22;6014;47.690;9.130;2023-05-07T05:56:18;16.40;99.90
11908;DHT22;6014;47.690;9.130;2023-05-07T05:58:46;16.30;99.90
11908;DHT22;6014;47.690;9.130;2023-05-07T06:01:21;16.10;99.90
11908;DHT22;6014;47.690;9.130;2023-05-07T06:03:50;16.40;99.90
11908;DHT22;6014;47.690;9.130;2023-05-07T06:06:24;16.60;99.90
11908;DHT22;6014;47.690;9.130;2023-05-07T06:08:54;16.50;99.90
11908;DHT22;6014;47.690;9.130;2023-05-07T06:11:22;16.70;99.90
11908;DHT22;6014;47.690;9.130;2023-05-07T06:13:50;16.90;99.90
11908;DHT22;6014;47.690;9.130;2023-05-07T06:16:18;17.20;99.90
11908;DHT22;6014;47.690;9.130;2023-05-07T06:18:54;17.10;99.90
11908;DHT22;6014;47.690;9.130;2023-05-07T06:21:22;17.40;99.90
11908;DHT22;6014;47.690;9.130;2023-05-07T06:23:58;17.30;99.90
11908;DHT22;6014;47.690;9.130;2023-05-07T06:26:28;17.60;99.90
11908;DHT22;6014;47.690;9.130;2023-05-07T06:28:56;17.60;99.90
11908;DHT22;6014;47.690;9.130;2023-05-07T06:31:29;17.90;99.90
11908;DHT22;6014;47.690;9.130;2023-05-07T06:34:01;17.70;99.90
11908;DHT22;6014;47.690;9.130;2023-05-07T06:36:29;17.80;99.90
11908;DHT22;6014;47.690;9.130;2023-05-07T06:39:00;17.70;99.90
11908;DHT22;6014;47.690;9.130;2023-05-07T06:41:29;17.50;99.90
11908;DHT22;6014;47.690;9.130;2023-05-07T06:43:57;17.70;99.90
11908;DHT22;6014;47.690;9.130;2023-05-07T06:46:25;17.80;99.90
11908;DHT22;6014;47.690;9.130;2023-05-07T06:48:53;17.70;99.90
11908;DHT22;6014;47.690;9.130;2023-05-07T06:51:22;17.70;99.90
11908;DHT22;6014;47.690;9.130;2023-05-07T06:53:51;17.60;99.90
11908;DHT22;6014;47.690;9.130;2023-05-07T06:56:21;18.00;99.90
11908;DHT22;6014;47.690;9.130;2023-05-07T06:58:49;18.10;99.90
11908;DHT22;6014;47.690;9.130;2023-05-07T07:01:18;17.70;99.90
11908;DHT22;6014;47.690;9.130;2023-05-07T07:03:48;17.50;99.90
11908;DHT22;6014;47.690;9.130;2023-05-07T07:06:16;17.30;99.90
11908;DHT22;6014;47.690;9.130;2023-05-07T07:08:45;17.50;99.90
11908;DHT22;6014;47.690;9.130;2023-05-07T07:11:15;17.50;99.90
11908;DHT22;6014;47.690;9.130;2023-05-07T07:13:45;17.40;99.90
11908;DHT22;6014;47.690;9.130;2023-05-07T07:16:13;17.40;99.90
11908;DHT22;6014;47.690;9.130;2023-05-07T07:18:50;17.90;99.90
11908;DHT22;6014;47.690;9.130;2023-05-07T07:21:18;18.30;99.90
11908;DHT22;6014;47.690;9.130;2023-05-07T07:23:48;18.60;99.90
11908;DHT22;6014;47.690;9.130;2023-05-07T07:26:17;18.70;99.90
11908;DHT22;6014;47.690;9.130;2023-05-07T07:28:45;19.00;99.90
11908;DHT22;6014;47.690;9.130;2023-05-07T07:31:13;19.10;99.90
11908;DHT22;6014;47.690;9.130;2023-05-07T07:33:42;19.50;99.90
11908;DHT22;6014;47.690;9.130;2023-05-07T07:36:10;19.80;99.90
11908;DHT22;6014;47.690;9.130;2023-05-07T07:38:38;19.70;99.90
11908;DHT22;6014;47.690;9.130;2023-05-07T07:41:09;19.50;99.90
11908;DHT22;6014;47.690;9.130;2023-05-07T07:43:37;20.10;99.90
11908;DHT22;6014;47.690;9.130;2023-05-07T07:46:05;20.10;99.90
11908;DHT22;6014;47.690;9.130;2023-05-07T07:48:33;19.80;99.90
11908;DHT22;6014;47.690;9.130;2023-05-07T07:51:01;20.10;99.90
11908;DHT22;6014;47.690;9.130;2023-05-07T07:53:29;20.20;99.90
11908;DHT22;6014;47.690;9.130;2023-05-07T07:56:01;20.50;99.90
11908;DHT22;6014;47.690;9.130;2023-05-07T07:58:32;21.00;99.90
11908;DHT22;6014;47.690;9.130;2023-05-07T08:01:02;20.70;99.90
11908;DHT22;6014;47.690;9.130;2023-05-07T08:03:33;21.10;99.90
11908;DHT22;6014;47.690;9.130;2023-05-07T08:06:02;20.80;99.90
11908;DHT22;6014;47.690;9.130;2023-05-07T08:08:37;21.00;99.90
11908;DHT22;6014;47.690;9.130;2023-05-07T08:11:06;20.70;99.90
11908;DHT22;6014;47.690;9.130;2023-05-07T08:13:36;21.00;99.90
11908;DHT22;6014;47.690;9.130;2023-05-07T08:16:05;20.80;99.90
11908;DHT22;6014;47.690;9.130;2023-05-07T08:18:35;20.80;99.90
11908;DHT22;6014;47.690;9.130;2023-05-07T08:21:09;20.60;99.90
11908;DHT22;6014;47.690;9.130;2023-05-07T08:23:41;20.50;99.90
11908;DHT22;6014;47.690;9.130;2023-05-07T08:26:09;20.20;99.90
11908;DHT22;6014;47.690;9.130;2023-05-07T08:28:38;20.20;99.90
11908;DHT22;6014;47.690;9.130;2023-05-07T08:31:06;20.40;99.90
11908;DHT22;6014;47.690;9.130;2023-05-07T08:33:45;20.50;99.90
11908;DHT22;6014;47.690;9.130;2023-05-07T08:36:16;20.80;99.90
11908;DHT22;6014;47.690;9.130;2023-05-07T08:38:46;21.20;99.90
11908;DHT22;6014;47.690;9.130;2023-05-07T08:41:14;21.50;98.00
11908;DHT22;6014;47.690;9.130;2023-05-07T08:43:47;21.60;98.70
11908;DHT22;6014;47.690;9.130;2023-05-07T08:46:18;21.60;98.50
11908;DHT22;6014;47.690;9.130;2023-05-07T08:48:54;21.70;96.30
11908;DHT22;6014;47.690;9.130;2023-05-07T08:51:24;21.80;93.40
11908;DHT22;6014;47.690;9.130;2023-05-07T08:53:52;21.80;93.80
11908;DHT22;6014;47.690;9.130;2023-05-07T08:56:20;21.50;98.00
11908;DHT22;6014;47.690;9.130;2023-05-07T08:58:50;22.10;98.40
11908;DHT22;6014;47.690;9.130;2023-05-07T09:01:19;22.00;95.00
11908;DHT22;6014;47.690;9.130;2023-05-07T09:03:49;22.40;92.10
11908;DHT22;6014;47.690;9.130;2023-05-07T09:06:19;21.60;95.50
11908;DHT22;6014;47.690;9.130;2023-05-07T09:08:54;22.20;97.20
11908;DHT22;6014;47.690;9.130;2023-05-07T09:11:33;22.60;92.10
11908;DHT22;6014;47.690;9.130;2023-05-07T09:14:02;22.90;90.90
11908;DHT22;6014;47.690;9.130;2023-05-07T09:16:34;23.10;59.60
11908;DHT22;6014;47.690;9.130;2023-05-07T09:19:03;23.10;62.80
11908;DHT22;6014;47.690;9.130;2023-05-07T09:21:31;23.50;56.80
11908;DHT22;6014;47.690;9.130;2023-05-07T09:23:59;23.70;54.00
11908;DHT22;6014;47.690;9.130;2023-05-07T09:26:33;24.00;55.50
11908;DHT22;6014;47.690;9.130;2023-05-07T09:29:04;23.90;53.20
11908;DHT22;6014;47.690;9.130;2023-05-07T09:31:36;24.00;50.80
11908;DHT22;6014;47.690;9.130;2023-05-07T09:34:05;23.80;50.80
11908;DHT22;6014;47.690;9.130;2023-05-07T09:36:41;23.60;53.10
11908;DHT22;6014;47.690;9.130;2023-05-07T09:39:12;23.50;56.00
11908;DHT22;6014;47.690;9.130;2023-05-07T09:41:57;23.70;54.70
11908;DHT22;6014;47.690;9.130;2023-05-07T09:44:31;23.60;53.90
11908;DHT22;6014;47.690;9.130;2023-05-07T09:47:00;23.40;55.60
11908;DHT22;6014;47.690;9.130;2023-05-07T09:49:30;23.80;53.80
11908;DHT22;6014;47.690;9.130;2023-05-07T09:52:04;24.00;54.30
11908;DHT22;6014;47.690;9.130;2023-05-07T09:54:37;24.40;51.90
11908;DHT22;6014;47.690;9.130;2023-05-07T09:57:11;24.80;51.30
11908;DHT22;6014;47.690;9.130;2023-05-07T09:59:43;24.80;51.00
11908;DHT22;6014;47.690;9.130;2023-05-07T10:02:13;24.80;52.70
11908;DHT22;6014;47.690;9.130;2023-05-07T10:04:42;24.40;50.90
11908;DHT22;6014;47.690;9.130;2023-05-07T10:07:13;24.60;51.40
11908;DHT22;6014;47.690;9.130;2023-05-07T10:09:49;24.40;52.90
11908;DHT22;6014;47.690;9.130;2023-05-07T10:12:20;24.00;52.70
11908;DHT22;6014;47.690;9.130;2023-05-07T10:14:53;23.80;54.90
11908;DHT22;6014;47.690;9.130;2023-05-07T10:17:24;23.70;55.70
11908;DHT22;6014;47.690;9.130;2023-05-07T10:20:08;23.80;55.00
11908;DHT22;6014;47.690;9.130;2023-05-07T10:22:45;23.90;57.00
11908;DHT22;6014;47.690;9.130;2023-05-07T10:25:18;23.90;57.10
11908;DHT22;6014;47.690;9.130;2023-05-07T10:28:03;23.70;55.80
11908;DHT22;6014;47.690;9.130;2023-05-07T10:30:42;23.60;59.60
11908;DHT22;6014;47.690;9.130;2023-05-07T10:33:16;24.20;57.20
11908;DHT22;6014;47.690;9.130;2023-05-07T10:35:49;24.10;56.50
11908;DHT22;6014;47.690;9.130;2023-05-07T10:38:18;24.00;56.40
11908;DHT22;6014;47.690;9.130;2023-05-07T10:40:47;24.60;55.30
11908;DHT22;6014;47.690;9.130;2023-05-07T10:43:15;24.70;54.50
11908;DHT22;6014;47.690;9.130;2023-05-07T10:46:11;24.80;57.00
11908;DHT22;6014;47.690;9.130;2023-05-07T10:49:12;24.80;54.40
11908;DHT22;6014;47.690;9.130;2023-05-07T10:52:13;24.70;53.60
11908;DHT22;6014;47.690;9.130;2023-05-07T10:54:45;24.60;53.40
11908;DHT22;6014;47.690;9.130;2023-05-07T10:57:35;25.00;52.50
11908;DHT22;6014;47.690;9.130;2023-05-07T11:00:41;24.80;52.70
11908;DHT22;6014;47.690;9.130;2023-05-07T11:03:14;25.00;52.80
11908;DHT22;6014;47.690;9.130;2023-05-07T11:05:42;25.00;55.30
11908;DHT22;6014;47.690;9.130;2023-05-07T11:08:16;24.50;54.80
11908;DHT22;6014;47.690;9.130;2023-05-07T11:10:51;24.70;54.20
11908;DHT22;6014;47.690;9.130;2023-05-07T11:13:42;25.20;50.70
11908;DHT22;6014;47.690;9.130;2023-05-07T11:16:23;25.70;51.90
11908;DHT22;6014;47.690;9.130;2023-05-07T11:19:01;25.10;51.30
11908;DHT22;6014;47.690;9.130;2023-05-07T11:21:34;25.30;51.60
11908;DHT22;6014;47.690;9.130;2023-05-07T11:24:09;25.20;50.60
11908;DHT22;6014;47.690;9.130;2023-05-07T11:26:44;25.20;52.70
11908;DHT22;6014;47.690;9.130;2023-05-07T11:29:16;25.20;53.30
11908;DHT22;6014;47.690;9.130;2023-05-07T11:31:56;25.30;51.80
11908;DHT22;6014;47.690;9.130;2023-05-07T11:34:37;25.50;50.20
11908;DHT22;6014;47.690;9.130;2023-05-07T11:37:08;25.30;51.10
11908;DHT22;6014;47.690;9.130;2023-05-07T11:39:37;25.60;51.40
11908;DHT22;6014;47.690;9.130;2023-05-07T11:42:31;25.80;50.60
11908;DHT22;6014;47.690;9.130;2023-05-07T11:45:00;25.70;48.70
11908;DHT22;6014;47.690;9.130;2023-05-07T11:47:30;25.80;49.50
11908;DHT22;6014;47.690;9.130;2023-05-07T11:50:05;25.50;51.20
11908;DHT22;6014;47.690;9.130;2023-05-07T11:52:50;25.50;51.00
11908;DHT22;6014;47.690;9.130;2023-05-07T11:55:27;25.50;53.60
11908;DHT22;6014;47.690;9.130;2023-05-07T11:57:55;25.30;50.70
11908;DHT22;6014;47.690;9.130;2023-05-07T12:00:31;25.20;50.40
11908;DHT22;6014;47.690;9.130;2023-05-07T12:03:03;25.20;49.90
11908;DHT22;6014;47.690;9.130;2023-05-07T12:05:35;24.90;54.80
11908;DHT22;6014;47.690;9.130;2023-05-07T12:08:13;24.90;53.80
11908;DHT22;6014;47.690;9.130;2023-05-07T12:10:49;24.80;55.10
11908;DHT22;6014;47.690;9.130;2023-05-07T12:13:35;24.70;55.20
11908;DHT22;6014;47.690;9.130;2023-05-07T12:16:05;24.50;56.30
11908;DHT22;6014;47.690;9.130;2023-05-07T12:18:35;24.40;56.70
11908;DHT22;6014;47.690;9.130;2023-05-07T12:21:11;24.70;56.90
11908;DHT22;6014;47.690;9.130;2023-05-07T12:24:03;24.50;56.60
11908;DHT22;6014;47.690;9.130;2023-05-07T12:26:32;24.30;57.90
11908;DHT22;6014;47.690;9.130;2023-05-07T12:29:04;24.50;57.70
11908;DHT22;6014;47.690;9.130;2023-05-07T12:31:33;24.30;57.60
11908;DHT22;6014;47.690;9.130;2023-05-07T12:34:02;24.40;57.40
11908;DHT22;6014;47.690;9.130;2023-05-07T12:36:40;24.40;57.80
11908;DHT22;6014;47.690;9.130;2023-05-07T12:39:10;24.70;55.50
11908;DHT22;6014;47.690;9.130;2023-05-07T12:41:55;25.00;55.60
11908;DHT22;6014;47.690;9.130;2023-05-07T12:44:30;24.50;55.80
11908;DHT22;6014;47.690;9.130;2023-05-07T12:47:01;24.40;56.00
11908;DHT22;6014;47.690;9.130;2023-05-07T12:49:30;24.70;55.40
11908;DHT22;6014;47.690;9.130;2023-05-07T12:52:01;24.60;55.40
11908;DHT22;6014;47.690;9.130;2023-05-07T12:54:29;25.10;52.80
11908;DHT22;6014;47.690;9.130;2023-05-07T12:57:02;25.30;53.20
11908;DHT22;6014;47.690;9.130;2023-05-07T12:59:32;25.30;52.90
11908;DHT22;6014;47.690;9.130;2023-05-07T13:02:02;25.00;53.80
11908;DHT22;6014;47.690;9.130;2023-05-07T13:04:31;25.00;51.50
11908;DHT22;6014;47.690;9.130;2023-05-07T13:07:01;24.80;54.00
11908;DHT22;6014;47.690;9.130;2023-05-07T13:09:33;24.50;55.80
11908;DHT22;6014;47.690;9.130;2023-05-07T13:12:04;24.20;56.80
11908;DHT22;6014;47.690;9.130;2023-05-07T13:14:46;24.20;59.80
11908;DHT22;6014;47.690;9.130;2023-05-07T13:17:14;24.50;58.10
11908;DHT22;6014;47.690;9.130;2023-05-07T13:19:51;25.10;55.20
11908;DHT22;6014;47.690;9.130;2023-05-07T13:22:22;25.50;53.10
11908;DHT22;6014;47.690;9.130;2023-05-07T13:24:51;26.10;50.20
11908;DHT22;6014;47.690;9.130;2023-05-07T13:27:19;26.10;50.40
11908;DHT22;6014;47.690;9.130;2023-05-07T13:29:49;26.40;49.10
11908;DHT22;6014;47.690;9.130;2023-05-07T13:32:17;27.10;46.80
11908;DHT22;6014;47.690;9.130;2023-05-07T13:34:47;26.70;43.10
11908;DHT22;6014;47.690;9.130;2023-05-07T13:37:22;26.30;46.40
11908;DHT22;6014;47.690;9.130;2023-05-07T13:40:00;26.70;47.60
11908;DHT22;6014;47.690;9.130;2023-05-07T13:42:30;26.70;44.70
11908;DHT22;6014;47.690;9.130;2023-05-07T13:44:58;26.60;45.40
11908;DHT22;6014;47.690;9.130;2023-05-07T13:47:27;26.40;43.60
11908;DHT22;6014;47.690;9.130;2023-05-07T13:50:04;26.70;45.50
11908;DHT22;6014;47.690;9.130;2023-05-07T13:52:34;26.40;42.90
11908;DHT22;6014;47.690;9.130;2023-05-07T13:55:02;26.20;44.60
11908;DHT22;6014;47.690;9.130;2023-05-07T13:57:30;26.00;46.20
11908;DHT22;6014;47.690;9.130;2023-05-07T13:59:58;26.20;46.70
11908;DHT22;6014;47.690;9.130;2023-05-07T14:02:33;26.50;44.70
11908;DHT22;6014;47.690;9.130;2023-05-07T14:05:02;26.20;45.80
11908;DHT22;6014;47.690;9.130;2023-05-07T14:07:30;25.70;47.00
11908;DHT22;6014;47.690;9.130;2023-05-07T14:09:59;25.30;45.90
11908;DHT22;6014;47.690;9.130;2023-05-07T14:12:28;25.30;47.00
11908;DHT22;6014;47.690;9.130;2023-05-07T14:14:56;25.00;46.70
11908;DHT22;6014;47.690;9.130;2023-05-07T14:17:24;24.70;47.30
11908;DHT22;6014;47.690;9.130;2023-05-07T14:19:53;24.00;46.00
11908;DHT22;6014;47.690;9.130;2023-05-07T14:22:29;23.70;46.50
11908;DHT22;6014;47.690;9.130;2023-05-07T14:25:01;23.50;47.10
11908;DHT22;6014;47.690;9.130;2023-05-07T14:27:33;23.20;47.10
11908;DHT22;6014;47.690;9.130;2023-05-07T14:30:01;23.00;49.10
11908;DHT22;6014;47.690;9.130;2023-05-07T14:32:29;22.70;52.00
11908;DHT22;6014;47.690;9.130;2023-05-07T14:34:57;22.60;54.90
11908;DHT22;6014;47.690;9.130;2023-05-07T14:37:25;22.20;57.50
11908;DHT22;6014;47.690;9.130;2023-05-07T14:39:53;22.00;57.30
11908;DHT22;6014;47.690;9.130;2023-05-07T14:42:25;21.90;56.00
11908;DHT22;6014;47.690;9.130;2023-05-07T14:44:53;21.90;58.50
11908;DHT22;6014;47.690;9.130;2023-05-07T14:47:21;22.00;61.60
11908;DHT22;6014;47.690;9.130;2023-05-07T14:49:49;21.90;63.10
11908;DHT22;6014;47.690;9.130;2023-05-07T14:52:17;21.70;70.00
11908;DHT22;6014;47.690;9.130;2023-05-07T14:54:45;21.60;73.00
11908;DHT22;6014;47.690;9.130;2023-05-07T14:57:14;21.60;69.30
11908;DHT22;6014;47.690;9.130;2023-05-07T14:59:47;21.50;65.40
11908;DHT22;6014;47.690;9.130;2023-05-07T15:02:17;21.40;64.60
11908;DHT22;6014;47.690;9.130;2023-05-07T15:04:47;21.60;64.70
11908;DHT22;6014;47.690;9.130;2023-05-07T15:07:15;21.50;63.40
11908;DHT22;6014;47.690;9.130;2023-05-07T15:09:54;21.50;63.10
11908;DHT22;6014;47.690;9.130;2023-05-07T15:12:23;21.80;61.50
11908;DHT22;6014;47.690;9.130;2023-05-07T15:14:52;22.00;63.40
11908;DHT22;6014;47.690;9.130;2023-05-07T15:17:20;22.20;79.80
11908;DHT22;6014;47.690;9.130;2023-05-07T15:19:48;22.40;86.00
11908;DHT22;6014;47.690;9.130;2023-05-07T15:22:20;22.30;93.40
11908;DHT22;6014;47.690;9.130;2023-05-07T15:24:49;21.90;84.60
11908;DHT22;6014;47.690;9.130;2023-05-07T15:27:17;21.60;80.40
11908;DHT22;6014;47.690;9.130;2023-05-07T15:29:45;21.40;74.60
11908;DHT22;6014;47.690;9.130;2023-05-07T15:32:15;21.30;72.50
11908;DHT22;6014;47.690;9.130;2023-05-07T15:34:43;21.20;74.20
11908;DHT22;6014;47.690;9.130;2023-05-07T15:37:11;21.10;77.30
11908;DHT22;6014;47.690;9.130;2023-05-07T15:39:39;21.20;84.90
11908;DHT22;6014;47.690;9.130;2023-05-07T15:42:07;21.20;87.20
11908;DHT22;6014;47.690;9.130;2023-05-07T15:44:35;21.10;94.90
11908;DHT22;6014;47.690;9.130;2023-05-07T15:47:03;21.10;98.90
11908;DHT22;6014;47.690;9.130;2023-05-07T15:49:37;20.90;90.60
11908;DHT22;6014;47.690;9.130;2023-05-07T15:52:05;20.80;88.30
11908;DHT22;6014;47.690;9.130;2023-05-07T15:54:33;20.80;90.80
11908;DHT22;6014;47.690;9.130;2023-05-07T15:57:01;20.80;89.20
11908;DHT22;6014;47.690;9.130;2023-05-07T15:59:31;20.90;86.60
11908;DHT22;6014;47.690;9.130;2023-05-07T16:01:59;20.90;88.80
11908;DHT22;6014;47.690;9.130;2023-05-07T16:04:27;20.90;91.00
11908;DHT22;6014;47.690;9.130;2023-05-07T16:07:05;20.80;94.40
11908;DHT22;6014;47.690;9.130;2023-05-07T16:09:37;20.70;99.90